Time,TemperatureF,DewpointF,PressureIn,WindDirection,WindDirectionDegrees,WindSpeedMPH,WindSpeedGustMPH,Humidity,HourlyPrecipIn,Conditions,Clouds,dailyrainin,SoftwareType,DateUTC
2013-12-11 00:00:00,11.0,6.3,30.36,West,273,2.0,6.0,81,0.00,,,0.00,WeatherTracker,2013-12-11 06:00:00,
2013-12-11 00:05:00,11.0,6.3,30.36,WSW,238,4.0,8.0,81,0.00,,,0.00,WeatherTracker,2013-12-11 06:05:00,
2013-12-11 00:10:00,11.0,6.6,30.36,WSW,250,4.0,8.0,82,0.00,,,0.00,WeatherTracker,2013-12-11 06:10:00,
2013-12-11 00:20:00,11.1,6.7,30.36,WNW,285,3.0,7.0,82,0.00,,,0.00,WeatherTracker,2013-12-11 06:20:00,
2013-12-11 00:25:00,11.1,7.0,30.36,West,275,0.0,7.0,83,0.00,,,0.00,WeatherTracker,2013-12-11 06:25:00,
2013-12-11 00:30:00,11.2,7.1,30.36,WNW,302,0.0,7.0,83,0.00,,,0.00,WeatherTracker,2013-12-11 06:30:00,
2013-12-11 00:35:00,11.3,7.2,30.36,SW,232,3.0,5.0,83,0.00,,,0.00,WeatherTracker,2013-12-11 06:35:00,
2013-12-11 00:40:00,11.3,7.4,30.36,SSW,205,0.0,5.0,84,0.00,,,0.00,WeatherTracker,2013-12-11 06:40:00,
2013-12-11 00:50:00,11.4,7.5,30.36,WSW,252,0.0,3.0,84,0.00,,,0.00,WeatherTracker,2013-12-11 06:50:00,
2013-12-11 00:55:00,11.4,7.5,30.36,ESE,117,0.0,3.0,84,0.00,,,0.00,WeatherTracker,2013-12-11 06:55:00,
2013-12-11 01:05:00,11.6,8.0,30.36,SW,235,0.0,4.0,85,0.00,,,0.00,WeatherTracker,2013-12-11 07:05:00,
2013-12-11 01:10:00,11.7,8.1,30.36,SW,236,0.0,4.0,85,0.00,,,0.00,WeatherTracker,2013-12-11 07:10:00,
2013-12-11 01:15:00,11.7,8.1,30.36,West,261,0.0,3.0,85,0.00,,,0.00,WeatherTracker,2013-12-11 07:15:00,
2013-12-11 01:20:00,11.8,8.2,30.36,WSW,248,0.0,4.0,85,0.00,,,0.00,WeatherTracker,2013-12-11 07:20:00,
2013-12-11 01:25:00,11.8,8.2,30.36,WSW,249,0.0,4.0,85,0.00,,,0.00,WeatherTracker,2013-12-11 07:25:00,
2013-12-11 01:30:00,11.8,8.2,30.36,SW,220,0.0,4.0,85,0.00,,,0.00,WeatherTracker,2013-12-11 07:30:00,
2013-12-11 01:40:00,11.9,8.3,30.36,WSW,243,0.0,4.0,85,0.00,,,0.00,WeatherTracker,2013-12-11 07:40:00,
2013-12-11 01:50:00,11.9,8.3,30.36,WSW,255,0.0,2.0,85,0.00,,,0.00,WeatherTracker,2013-12-11 07:50:00,
2013-12-11 01:55:00,12.0,8.4,30.36,WSW,247,0.0,3.0,85,0.00,,,0.00,WeatherTracker,2013-12-11 07:55:00,
2013-12-11 02:00:00,12.0,8.4,30.36,WSW,243,0.0,3.0,85,0.00,,,0.00,WeatherTracker,2013-12-11 08:00:00,
2013-12-11 02:05:00,12.0,8.6,30.37,West,273,0.0,3.0,86,0.00,,,0.00,WeatherTracker,2013-12-11 08:05:00,
2013-12-11 02:10:00,12.0,8.6,30.37,WSW,250,2.0,3.0,86,0.00,,,0.00,WeatherTracker,2013-12-11 08:10:00,
2013-12-11 02:15:00,12.1,8.7,30.37,West,271,0.0,4.0,86,0.00,,,0.00,WeatherTracker,2013-12-11 08:15:00,
2013-12-11 02:20:00,12.1,8.7,30.37,West,267,4.0,4.0,86,0.00,,,0.00,WeatherTracker,2013-12-11 08:20:00,
2013-12-11 02:25:00,12.2,8.8,30.37,West,264,0.0,4.0,86,0.00,,,0.00,WeatherTracker,2013-12-11 08:25:00,
2013-12-11 02:30:00,12.3,8.9,30.37,West,263,0.0,4.0,86,0.00,,,0.00,WeatherTracker,2013-12-11 08:30:00,
2013-12-11 02:35:00,12.3,8.9,30.37,WSW,250,0.0,6.0,86,0.00,,,0.00,WeatherTracker,2013-12-11 08:35:00,
2013-12-11 02:40:00,12.4,9.0,30.37,SW,235,0.0,6.0,86,0.00,,,0.00,WeatherTracker,2013-12-11 08:40:00,
2013-12-11 02:45:00,12.5,9.4,30.37,WSW,252,0.0,2.0,87,0.00,,,0.00,WeatherTracker,2013-12-11 08:45:00,
2013-12-11 02:50:00,12.5,9.4,30.37,SW,215,0.0,2.0,87,0.00,,,0.00,WeatherTracker,2013-12-11 08:50:00,
2013-12-11 03:00:00,12.6,9.5,30.37,SW,221,0.0,4.0,87,0.00,,,0.00,WeatherTracker,2013-12-11 09:00:00,
2013-12-11 03:05:00,12.7,9.6,30.37,SW,221,0.0,0.0,87,0.00,,,0.00,WeatherTracker,2013-12-11 09:05:00,
2013-12-11 03:10:00,12.7,9.6,30.37,SW,221,0.0,0.0,87,0.00,,,0.00,WeatherTracker,2013-12-11 09:10:00,
2013-12-11 03:15:00,12.8,9.7,30.37,SW,221,0.0,0.0,87,0.00,,,0.00,WeatherTracker,2013-12-11 09:15:00,
2013-12-11 03:25:00,12.8,9.7,30.37,SW,221,0.0,0.0,87,0.00,,,0.00,WeatherTracker,2013-12-11 09:25:00,
2013-12-11 03:30:00,12.8,9.7,30.36,SW,221,0.0,2.0,87,0.00,,,0.00,WeatherTracker,2013-12-11 09:30:00,
2013-12-11 03:35:00,12.8,9.7,30.36,SW,224,0.0,2.0,87,0.00,,,0.00,WeatherTracker,2013-12-11 09:35:00,
2013-12-11 03:40:00,12.8,9.7,30.36,WSW,238,0.0,4.0,87,0.00,,,0.00,WeatherTracker,2013-12-11 09:40:00,
2013-12-11 03:50:00,12.9,9.8,30.36,SW,227,0.0,3.0,87,0.00,,,0.00,WeatherTracker,2013-12-11 09:50:00,
2013-12-11 03:55:00,12.9,9.8,30.36,SW,217,0.0,2.0,87,0.00,,,0.00,WeatherTracker,2013-12-11 09:55:00,
2013-12-11 04:00:00,12.9,9.8,30.36,SW,217,0.0,2.0,87,0.00,,,0.00,WeatherTracker,2013-12-11 10:00:00,
2013-12-11 04:05:00,12.9,9.8,30.36,West,275,0.0,0.0,87,0.00,,,0.00,WeatherTracker,2013-12-11 10:05:00,
2013-12-11 04:15:00,13.0,9.9,30.36,WNW,286,1.0,3.0,87,0.00,,,0.00,WeatherTracker,2013-12-11 10:15:00,
2013-12-11 04:20:00,13.0,9.9,30.36,West,260,0.0,6.0,87,0.00,,,0.00,WeatherTracker,2013-12-11 10:20:00,
2013-12-11 04:25:00,13.1,10.0,30.36,West,273,0.0,6.0,87,0.00,,,0.00,WeatherTracker,2013-12-11 10:25:00,
2013-12-11 04:30:00,13.2,10.3,30.37,West,259,0.0,6.0,88,0.00,,,0.00,WeatherTracker,2013-12-11 10:30:00,
2013-12-11 04:40:00,13.4,10.5,30.37,WNW,285,0.0,4.0,88,0.00,,,0.00,WeatherTracker,2013-12-11 10:40:00,
2013-12-11 04:45:00,13.5,10.6,30.37,WSW,240,0.0,4.0,88,0.00,,,0.00,WeatherTracker,2013-12-11 10:45:00,
2013-12-11 04:50:00,13.5,10.6,30.37,WNW,297,0.0,3.0,88,0.00,,,0.00,WeatherTracker,2013-12-11 10:50:00,
2013-12-11 04:55:00,13.6,10.7,30.38,West,267,0.0,5.0,88,0.00,,,0.00,WeatherTracker,2013-12-11 10:55:00,
2013-12-11 05:05:00,13.6,10.7,30.38,WSW,252,0.0,4.0,88,0.00,,,0.00,WeatherTracker,2013-12-11 11:05:00,
2013-12-11 05:10:00,13.7,10.8,30.38,West,261,0.0,6.0,88,0.00,,,0.00,WeatherTracker,2013-12-11 11:10:00,
2013-12-11 05:15:00,13.7,10.8,30.39,NW,309,0.0,6.0,88,0.00,,,0.00,WeatherTracker,2013-12-11 11:15:00,
2013-12-11 05:20:00,13.7,10.8,30.39,WSW,254,1.0,3.0,88,0.00,,,0.00,WeatherTracker,2013-12-11 11:20:00,
2013-12-11 05:30:00,13.8,10.9,30.39,WSW,256,3.0,5.0,88,0.00,,,0.00,WeatherTracker,2013-12-11 11:30:00,
2013-12-11 05:35:00,13.8,10.9,30.39,WSW,247,0.0,5.0,88,0.00,,,0.00,WeatherTracker,2013-12-11 11:35:00,
2013-12-11 05:40:00,13.8,10.9,30.40,West,281,0.0,5.0,88,0.00,,,0.00,WeatherTracker,2013-12-11 11:40:00,
2013-12-11 05:45:00,13.9,11.0,30.40,WNW,298,0.0,5.0,88,0.00,,,0.00,WeatherTracker,2013-12-11 11:45:00,
2013-12-11 05:55:00,13.9,11.0,30.40,WNW,282,0.0,5.0,88,0.00,,,0.00,WeatherTracker,2013-12-11 11:55:00,
2013-12-11 06:00:00,14.0,11.1,30.40,NW,325,0.0,5.0,88,0.00,,,0.00,WeatherTracker,2013-12-11 12:00:00,
2013-12-11 06:05:00,14.0,10.9,30.41,WNW,292,0.0,8.0,87,0.00,,,0.00,WeatherTracker,2013-12-11 12:05:00,
2013-12-11 06:15:00,13.9,10.8,30.41,NW,304,0.0,7.0,87,0.00,,,0.00,WeatherTracker,2013-12-11 12:15:00,
2013-12-11 06:20:00,13.8,10.7,30.42,NW,310,0.0,7.0,87,0.00,,,0.00,WeatherTracker,2013-12-11 12:20:00,
2013-12-11 06:25:00,13.7,10.6,30.42,NW,305,0.0,5.0,87,0.00,,,0.00,WeatherTracker,2013-12-11 12:25:00,
2013-12-11 06:35:00,13.7,10.6,30.42,West,263,3.0,7.0,87,0.00,,,0.00,WeatherTracker,2013-12-11 12:35:00,
2013-12-11 06:40:00,13.7,10.6,30.42,West,277,2.0,8.0,87,0.00,,,0.00,WeatherTracker,2013-12-11 12:40:00,
2013-12-11 06:45:00,13.8,10.7,30.43,WNW,301,4.0,8.0,87,0.00,,,0.00,WeatherTracker,2013-12-11 12:45:00,
2013-12-11 06:55:00,13.7,10.6,30.43,NNW,331,4.0,11.0,87,0.00,,,0.00,WeatherTracker,2013-12-11 12:55:00,
2013-12-11 07:05:00,13.7,10.6,30.44,WNW,303,2.0,7.0,87,0.00,,,0.00,WeatherTracker,2013-12-11 13:05:00,
2013-12-11 07:10:00,13.8,10.7,30.44,NW,318,3.0,7.0,87,0.00,,,0.00,WeatherTracker,2013-12-11 13:10:00,
2013-12-11 07:20:00,13.8,10.7,30.44,NW,324,0.0,8.0,87,0.00,,,0.00,WeatherTracker,2013-12-11 13:20:00,
2013-12-11 07:25:00,13.7,10.6,30.45,WNW,299,2.0,8.0,87,0.00,,,0.00,WeatherTracker,2013-12-11 13:25:00,
2013-12-11 07:30:00,13.6,10.2,30.45,West,271,1.0,12.0,86,0.00,,,0.00,WeatherTracker,2013-12-11 13:30:00,
2013-12-11 07:40:00,13.1,9.5,30.46,NW,323,5.0,15.0,85,0.00,,,0.00,WeatherTracker,2013-12-11 13:40:00,
2013-12-11 07:45:00,12.9,9.0,30.46,NNW,341,9.0,15.0,84,0.00,,,0.00,WeatherTracker,2013-12-11 13:45:00,
2013-12-11 07:50:00,12.6,8.4,30.47,NNW,339,7.0,15.0,83,0.00,,,0.00,WeatherTracker,2013-12-11 13:50:00,
2013-12-11 07:55:00,12.1,7.4,30.47,ESE,106,1.0,12.0,81,0.00,,,0.00,WeatherTracker,2013-12-11 13:55:00,
2013-12-11 08:00:00,11.7,6.7,30.48,WNW,289,2.0,11.0,80,0.00,,,0.00,WeatherTracker,2013-12-11 14:00:00,
2013-12-11 08:10:00,11.0,5.2,30.49,NW,322,3.0,12.0,77,0.00,,,0.00,WeatherTracker,2013-12-11 14:10:00,
2013-12-11 08:15:00,10.8,4.7,30.49,NW,323,6.0,13.0,76,0.00,,,0.00,WeatherTracker,2013-12-11 14:15:00,
2013-12-11 08:20:00,10.4,3.8,30.49,WNW,283,4.0,13.0,74,0.00,,,0.00,WeatherTracker,2013-12-11 14:20:00,
2013-12-11 08:25:00,10.2,3.6,30.50,NW,321,7.0,15.0,74,0.00,,,0.00,WeatherTracker,2013-12-11 14:25:00,
2013-12-11 08:30:00,9.9,2.7,30.50,NNW,331,6.0,15.0,72,0.00,,,0.00,WeatherTracker,2013-12-11 14:30:00,
2013-12-11 08:35:00,9.5,2.0,30.50,WSW,246,5.0,15.0,71,0.00,,,0.00,WeatherTracker,2013-12-11 14:35:00,
2013-12-11 08:40:00,9.1,1.6,30.50,WNW,286,5.0,12.0,71,0.00,,,0.00,WeatherTracker,2013-12-11 14:40:00,
2013-12-11 08:45:00,8.8,1.0,30.51,WNW,300,5.0,9.0,70,0.00,,,0.00,WeatherTracker,2013-12-11 14:45:00,
2013-12-11 08:50:00,8.5,0.8,30.51,WSW,254,3.0,9.0,70,0.00,,,0.00,WeatherTracker,2013-12-11 14:50:00,
2013-12-11 08:55:00,8.3,0.9,30.52,NW,306,6.0,10.0,71,0.00,,,0.00,WeatherTracker,2013-12-11 14:55:00,
2013-12-11 09:00:00,8.1,0.7,30.52,WNW,294,4.0,10.0,71,0.00,,,0.00,WeatherTracker,2013-12-11 15:00:00,
2013-12-11 09:05:00,7.9,0.5,30.52,NW,304,3.0,9.0,71,0.00,,,0.00,WeatherTracker,2013-12-11 15:05:00,
2013-12-11 09:10:00,7.7,0.6,30.52,WNW,291,4.0,11.0,72,0.00,,,0.00,WeatherTracker,2013-12-11 15:10:00,
2013-12-11 09:15:00,7.6,0.5,30.52,NW,318,8.0,11.0,72,0.00,,,0.00,WeatherTracker,2013-12-11 15:15:00,
2013-12-11 09:25:00,7.2,0.4,30.53,NW,321,11.0,15.0,73,0.00,,,0.00,WeatherTracker,2013-12-11 15:25:00,
2013-12-11 09:30:00,6.9,0.1,30.53,West,263,6.0,15.0,73,0.00,,,0.00,WeatherTracker,2013-12-11 15:30:00,
2013-12-11 09:40:00,7.3,0.5,30.54,NW,307,5.0,12.0,73,0.00,,,0.00,WeatherTracker,2013-12-11 15:40:00,
2013-12-11 09:50:00,7.3,0.2,30.54,WNW,298,7.0,16.0,72,0.00,,,0.00,WeatherTracker,2013-12-11 15:50:00,
2013-12-11 09:55:00,7.1,0.0,30.54,North,9,2.0,16.0,72,0.00,,,0.00,WeatherTracker,2013-12-11 15:55:00,
2013-12-11 10:00:00,7.1,0.0,30.54,NNW,338,7.0,16.0,72,0.00,,,0.00,WeatherTracker,2013-12-11 16:00:00,
2013-12-11 10:05:00,7.1,-0.3,30.55,NW,323,9.0,13.0,71,0.00,,,0.00,WeatherTracker,2013-12-11 16:05:00,
2013-12-11 10:10:00,6.9,-0.8,30.55,NNW,329,3.0,13.0,70,0.00,,,0.00,WeatherTracker,2013-12-11 16:10:00,
2013-12-11 10:15:00,7.2,-0.8,30.55,NW,309,6.0,13.0,69,0.00,,,0.00,WeatherTracker,2013-12-11 16:15:00,
2013-12-11 10:20:00,7.2,-1.1,30.55,NW,307,5.0,13.0,68,0.00,,,0.00,WeatherTracker,2013-12-11 16:20:00,
2013-12-11 10:25:00,7.0,-1.3,30.55,WNW,293,3.0,13.0,68,0.00,,,0.00,WeatherTracker,2013-12-11 16:25:00,
2013-12-11 10:30:00,6.7,-1.6,30.56,WNW,301,6.0,12.0,68,0.00,,,0.00,WeatherTracker,2013-12-11 16:30:00,
2013-12-11 10:35:00,6.4,-1.9,30.55,NW,306,8.0,12.0,68,0.00,,,0.00,WeatherTracker,2013-12-11 16:35:00,
2013-12-11 10:40:00,6.8,-1.5,30.55,West,270,5.0,12.0,68,0.00,,,0.00,WeatherTracker,2013-12-11 16:40:00,
2013-12-11 10:45:00,6.6,-2.3,30.55,WNW,299,8.0,12.0,66,0.00,,,0.00,WeatherTracker,2013-12-11 16:45:00,
2013-12-11 10:55:00,6.4,-2.5,30.56,WNW,295,5.0,13.0,66,0.00,,,0.00,WeatherTracker,2013-12-11 16:55:00,
2013-12-11 11:05:00,6.8,-2.1,30.55,WNW,302,7.0,14.0,66,0.00,,,0.00,WeatherTracker,2013-12-11 17:05:00,
2013-12-11 11:10:00,7.0,-2.2,30.55,NW,309,5.0,12.0,65,0.00,,,0.00,WeatherTracker,2013-12-11 17:10:00,
2013-12-11 11:15:00,7.1,-2.5,30.55,SSW,211,9.0,16.0,64,0.00,,,0.00,WeatherTracker,2013-12-11 17:15:00,
2013-12-11 11:25:00,6.8,-3.1,30.55,NW,313,4.0,14.0,63,0.00,,,0.00,WeatherTracker,2013-12-11 17:25:00,
2013-12-11 11:30:00,7.3,-2.6,30.55,NW,325,1.0,14.0,63,0.00,,,0.00,WeatherTracker,2013-12-11 17:30:00,
2013-12-11 11:35:00,7.6,-2.3,30.55,NW,325,3.0,14.0,63,0.00,,,0.00,WeatherTracker,2013-12-11 17:35:00,
2013-12-11 11:40:00,7.5,-2.4,30.55,NW,304,10.0,14.0,63,0.00,,,0.00,WeatherTracker,2013-12-11 17:40:00,
2013-12-11 11:45:00,6.9,-3.0,30.55,NW,321,2.0,15.0,63,0.00,,,0.00,WeatherTracker,2013-12-11 17:45:00,
2013-12-11 11:50:00,7.1,-2.8,30.55,NNW,344,6.0,15.0,63,0.00,,,0.00,WeatherTracker,2013-12-11 17:50:00,
2013-12-11 11:55:00,7.3,-2.6,30.55,WNW,286,6.0,14.0,63,0.00,,,0.00,WeatherTracker,2013-12-11 17:55:00,
2013-12-11 12:00:00,7.6,-2.7,30.55,WSW,248,5.0,12.0,62,0.00,,,0.00,WeatherTracker,2013-12-11 18:00:00,
2013-12-11 12:10:00,7.7,-2.9,30.55,NW,311,3.0,11.0,61,0.00,,,0.00,WeatherTracker,2013-12-11 18:10:00,
2013-12-11 12:15:00,7.7,-2.6,30.55,NNW,344,3.0,12.0,62,0.00,,,0.00,WeatherTracker,2013-12-11 18:15:00,
2013-12-11 12:20:00,7.7,-2.9,30.56,NNW,328,2.0,12.0,61,0.00,,,0.00,WeatherTracker,2013-12-11 18:20:00,
2013-12-11 12:25:00,7.7,-2.9,30.56,WNW,290,7.0,11.0,61,0.00,,,0.00,WeatherTracker,2013-12-11 18:25:00,
2013-12-11 12:30:00,8.0,-2.3,30.56,NW,304,3.0,11.0,62,0.00,,,0.00,WeatherTracker,2013-12-11 18:30:00,
2013-12-11 12:35:00,8.9,-1.4,30.56,NW,310,7.0,11.0,62,0.00,,,0.00,WeatherTracker,2013-12-11 18:35:00,
2013-12-11 12:40:00,8.8,-1.9,30.56,WNW,291,5.0,8.0,61,0.00,,,0.00,WeatherTracker,2013-12-11 18:40:00,
2013-12-11 12:45:00,8.2,-3.1,30.56,NW,313,9.0,11.0,59,0.00,,,0.00,WeatherTracker,2013-12-11 18:45:00,
2013-12-11 12:50:00,8.3,-3.0,30.56,NW,312,9.0,11.0,59,0.00,,,0.00,WeatherTracker,2013-12-11 18:50:00,
2013-12-11 13:00:00,7.1,-4.5,30.56,WNW,300,8.0,13.0,58,0.00,,,0.00,WeatherTracker,2013-12-11 19:00:00,
2013-12-11 13:05:00,7.2,-4.1,30.56,NW,313,7.0,12.0,59,0.00,,,0.00,WeatherTracker,2013-12-11 19:05:00,
2013-12-11 13:15:00,7.2,-4.1,30.56,NNW,346,3.0,13.0,59,0.00,,,0.00,WeatherTracker,2013-12-11 19:15:00,
2013-12-11 13:20:00,6.9,-4.4,30.56,NW,307,1.0,13.0,59,0.00,,,0.00,WeatherTracker,2013-12-11 19:20:00,
2013-12-11 13:25:00,7.2,-3.7,30.56,NNW,338,6.0,10.0,60,0.00,,,0.00,WeatherTracker,2013-12-11 19:25:00,
2013-12-11 13:30:00,7.4,-3.5,30.56,West,280,9.0,11.0,60,0.00,,,0.00,WeatherTracker,2013-12-11 19:30:00,
2013-12-11 13:35:00,7.2,-3.7,30.56,NW,305,6.0,11.0,60,0.00,,,0.00,WeatherTracker,2013-12-11 19:35:00,
2013-12-11 13:45:00,7.2,-3.4,30.56,NNW,333,2.0,13.0,61,0.00,,,0.00,WeatherTracker,2013-12-11 19:45:00,
2013-12-11 13:50:00,7.2,-3.4,30.56,NW,323,3.0,12.0,61,0.00,,,0.00,WeatherTracker,2013-12-11 19:50:00,
2013-12-11 13:55:00,7.2,-3.7,30.56,NW,320,5.0,11.0,60,0.00,,,0.00,WeatherTracker,2013-12-11 19:55:00,
2013-12-11 14:00:00,7.2,-3.7,30.56,NW,306,4.0,11.0,60,0.00,,,0.00,WeatherTracker,2013-12-11 20:00:00,
2013-12-11 14:05:00,7.2,-4.1,30.56,NW,323,7.0,12.0,59,0.00,,,0.00,WeatherTracker,2013-12-11 20:05:00,
2013-12-11 14:10:00,7.1,-4.2,30.56,NNW,339,10.0,12.0,59,0.00,,,0.00,WeatherTracker,2013-12-11 20:10:00,
2013-12-11 14:15:00,7.1,-4.2,30.56,WNW,303,6.0,11.0,59,0.00,,,0.00,WeatherTracker,2013-12-11 20:15:00,
2013-12-11 14:20:00,7.2,-4.1,30.56,NW,321,7.0,11.0,59,0.00,,,0.00,WeatherTracker,2013-12-11 20:20:00,
2013-12-11 14:30:00,7.3,-4.3,30.56,West,265,3.0,12.0,58,0.00,,,0.00,WeatherTracker,2013-12-11 20:30:00,
2013-12-11 14:35:00,7.2,-4.8,30.56,NNW,333,4.0,10.0,57,0.00,,,0.00,WeatherTracker,2013-12-11 20:35:00,
2013-12-11 14:40:00,7.2,-4.8,30.56,NW,309,3.0,11.0,57,0.00,,,0.00,WeatherTracker,2013-12-11 20:40:00,
2013-12-11 14:45:00,7.1,-4.9,30.56,WNW,284,4.0,11.0,57,0.00,,,0.00,WeatherTracker,2013-12-11 20:45:00,
2013-12-11 14:50:00,7.2,-4.8,30.56,WNW,301,8.0,9.0,57,0.00,,,0.00,WeatherTracker,2013-12-11 20:50:00,
2013-12-11 14:55:00,7.2,-4.8,30.56,North,355,2.0,9.0,57,0.00,,,0.00,WeatherTracker,2013-12-11 20:55:00,
2013-12-11 15:05:00,7.1,-4.9,30.57,NNW,327,2.0,10.0,57,0.00,,,0.00,WeatherTracker,2013-12-11 21:05:00,
2013-12-11 15:15:00,7.1,-4.5,30.57,NW,324,4.0,9.0,58,0.00,,,0.00,WeatherTracker,2013-12-11 21:15:00,
2013-12-11 15:20:00,7.2,-4.1,30.57,WNW,288,5.0,9.0,59,0.00,,,0.00,WeatherTracker,2013-12-11 21:20:00,
2013-12-11 15:25:00,7.2,-4.1,30.58,NW,322,5.0,8.0,59,0.00,,,0.00,WeatherTracker,2013-12-11 21:25:00,
2013-12-11 15:30:00,7.2,-4.1,30.57,North,351,0.0,8.0,59,0.00,,,0.00,WeatherTracker,2013-12-11 21:30:00,
2013-12-11 15:35:00,7.0,-4.3,30.58,NNW,331,4.0,7.0,59,0.00,,,0.00,WeatherTracker,2013-12-11 21:35:00,
2013-12-11 15:40:00,6.9,-4.4,30.58,NNW,340,2.0,7.0,59,0.00,,,0.00,WeatherTracker,2013-12-11 21:40:00,
2013-12-11 15:50:00,6.8,-4.5,30.58,WSW,245,2.0,5.0,59,0.00,,,0.00,WeatherTracker,2013-12-11 21:50:00,
2013-12-11 15:55:00,6.7,-4.2,30.58,WSW,254,4.0,8.0,60,0.00,,,0.00,WeatherTracker,2013-12-11 21:55:00,
2013-12-11 16:05:00,6.3,-4.6,30.59,West,259,1.0,7.0,60,0.00,,,0.00,WeatherTracker,2013-12-11 22:05:00,
2013-12-11 16:10:00,6.2,-4.7,30.59,WNW,288,2.0,8.0,60,0.00,,,0.00,WeatherTracker,2013-12-11 22:10:00,
2013-12-11 16:15:00,6.0,-4.9,30.59,West,265,0.0,8.0,60,0.00,,,0.00,WeatherTracker,2013-12-11 22:15:00,
2013-12-11 16:20:00,5.8,-4.7,30.60,West,275,1.0,7.0,61,0.00,,,0.00,WeatherTracker,2013-12-11 22:20:00,
2013-12-11 16:25:00,5.5,-5.0,30.60,WNW,296,0.0,9.0,61,0.00,,,0.00,WeatherTracker,2013-12-11 22:25:00,
2013-12-11 16:30:00,5.4,-5.1,30.60,WNW,293,3.0,9.0,61,0.00,,,0.00,WeatherTracker,2013-12-11 22:30:00,
2013-12-11 16:35:00,5.3,-5.2,30.60,SW,234,3.0,5.0,61,0.00,,,0.00,WeatherTracker,2013-12-11 22:35:00,
2013-12-11 16:40:00,5.1,-5.4,30.60,NW,313,0.0,4.0,61,0.00,,,0.00,WeatherTracker,2013-12-11 22:40:00,
2013-12-11 16:45:00,4.8,-5.7,30.60,NW,316,2.0,8.0,61,0.00,,,0.00,WeatherTracker,2013-12-11 22:45:00,
2013-12-11 16:50:00,4.5,-5.9,30.60,WNW,292,0.0,8.0,61,0.00,,,0.00,WeatherTracker,2013-12-11 22:50:00,
2013-12-11 16:55:00,4.3,-5.8,30.61,West,276,0.0,6.0,62,0.00,,,0.00,WeatherTracker,2013-12-11 22:55:00,
2013-12-11 17:00:00,4.2,-5.9,30.61,NW,306,0.0,6.0,62,0.00,,,0.00,WeatherTracker,2013-12-11 23:00:00,
2013-12-11 17:10:00,3.9,-6.2,30.61,WNW,297,0.0,2.0,62,0.00,,,0.00,WeatherTracker,2013-12-11 23:10:00,
2013-12-11 17:15:00,3.7,-6.4,30.60,West,269,0.0,2.0,62,0.00,,,0.00,WeatherTracker,2013-12-11 23:15:00,
2013-12-11 17:20:00,3.4,-6.7,30.61,West,263,0.0,1.0,62,0.00,,,0.00,WeatherTracker,2013-12-11 23:20:00,
2013-12-11 17:25:00,3.2,-6.8,30.61,WNW,298,0.0,1.0,62,0.00,,,0.00,WeatherTracker,2013-12-11 23:25:00,
2013-12-11 17:30:00,3.0,-7.0,30.61,WNW,282,0.0,2.0,62,0.00,,,0.00,WeatherTracker,2013-12-11 23:30:00,
2013-12-11 17:35:00,2.8,-6.9,30.61,West,266,0.0,2.0,63,0.00,,,0.00,WeatherTracker,2013-12-11 23:35:00,
2013-12-11 17:40:00,2.4,-7.3,30.61,WNW,299,0.0,3.0,63,0.00,,,0.00,WeatherTracker,2013-12-11 23:40:00,
2013-12-11 17:45:00,2.2,-7.1,30.61,WSW,247,0.0,3.0,64,0.00,,,0.00,WeatherTracker,2013-12-11 23:45:00,
2013-12-11 17:50:00,1.9,-7.4,30.61,West,281,1.0,3.0,64,0.00,,,0.00,WeatherTracker,2013-12-11 23:50:00,
2013-12-11 17:55:00,1.8,-7.5,30.61,SW,226,1.0,3.0,64,0.00,,,0.00,WeatherTracker,2013-12-11 23:55:00,
2013-12-11 18:00:00,1.7,-7.3,30.62,WNW,292,0.0,4.0,65,0.00,,,0.00,WeatherTracker,2013-12-12 00:00:00,
2013-12-11 18:10:00,1.4,-7.6,30.62,WSW,252,2.0,3.0,65,0.00,,,0.00,WeatherTracker,2013-12-12 00:10:00,
2013-12-11 18:15:00,1.3,-7.7,30.62,West,278,0.0,3.0,65,0.00,,,0.00,WeatherTracker,2013-12-12 00:15:00,
2013-12-11 18:20:00,1.2,-7.8,30.62,West,280,0.0,3.0,65,0.00,,,0.00,WeatherTracker,2013-12-12 00:20:00,
2013-12-11 18:25:00,1.0,-8.0,30.63,West,269,0.0,2.0,65,0.00,,,0.00,WeatherTracker,2013-12-12 00:25:00,
2013-12-11 18:30:00,0.9,-8.1,30.63,WSW,255,0.0,2.0,65,0.00,,,0.00,WeatherTracker,2013-12-12 00:30:00,
2013-12-11 18:35:00,0.6,-8.4,30.63,West,260,0.0,5.0,65,0.00,,,0.00,WeatherTracker,2013-12-12 00:35:00,
2013-12-11 18:45:00,0.2,-8.7,30.63,WSW,249,0.0,4.0,65,0.00,,,0.00,WeatherTracker,2013-12-12 00:45:00,
2013-12-11 18:50:00,0.0,-8.6,30.63,WNW,298,0.0,4.0,66,0.00,,,0.00,WeatherTracker,2013-12-12 00:50:00,
2013-12-11 18:55:00,-0.1,-8.4,30.63,WSW,238,2.0,5.0,67,0.00,,,0.00,WeatherTracker,2013-12-12 00:55:00,
2013-12-11 19:00:00,-0.2,-8.5,30.63,West,261,0.0,5.0,67,0.00,,,0.00,WeatherTracker,2013-12-12 01:00:00,
2013-12-11 19:10:00,-0.2,-8.2,30.62,WSW,246,0.0,4.0,68,0.00,,,0.00,WeatherTracker,2013-12-12 01:10:00,
2013-12-11 19:15:00,-0.3,-8.3,30.63,West,270,0.0,4.0,68,0.00,,,0.00,WeatherTracker,2013-12-12 01:15:00,
2013-12-11 19:20:00,-0.3,-8.3,30.63,WSW,254,0.0,2.0,68,0.00,,,0.00,WeatherTracker,2013-12-12 01:20:00,
2013-12-11 19:25:00,-0.4,-8.4,30.63,WSW,254,0.0,2.0,68,0.00,,,0.00,WeatherTracker,2013-12-12 01:25:00,
2013-12-11 19:30:00,-0.6,-8.6,30.62,West,268,0.0,4.0,68,0.00,,,0.00,WeatherTracker,2013-12-12 01:30:00,
2013-12-11 19:35:00,-0.7,-8.7,30.62,West,277,0.0,4.0,68,0.00,,,0.00,WeatherTracker,2013-12-12 01:35:00,
2013-12-11 19:45:00,-0.9,-8.6,30.62,WSW,238,0.0,2.0,69,0.00,,,0.00,WeatherTracker,2013-12-12 01:45:00,
2013-12-11 19:50:00,-1.0,-8.7,30.62,West,259,0.0,3.0,69,0.00,,,0.00,WeatherTracker,2013-12-12 01:50:00,
2013-12-11 19:55:00,-1.1,-8.8,30.62,West,267,0.0,3.0,69,0.00,,,0.00,WeatherTracker,2013-12-12 01:55:00,
2013-12-11 20:00:00,-1.3,-9.0,30.62,West,267,0.0,3.0,69,0.00,,,0.00,WeatherTracker,2013-12-12 02:00:00,
2013-12-11 20:10:00,-1.5,-9.2,30.62,SW,228,0.0,1.0,69,0.00,,,0.00,WeatherTracker,2013-12-12 02:10:00,
2013-12-11 20:15:00,-1.7,-9.4,30.62,SW,228,0.0,1.0,69,0.00,,,0.00,WeatherTracker,2013-12-12 02:15:00,
2013-12-11 20:25:00,-2.1,-9.7,30.61,SW,228,0.0,0.0,69,0.00,,,0.00,WeatherTracker,2013-12-12 02:25:00,
2013-12-11 20:30:00,-2.3,-9.9,30.61,WSW,246,0.0,3.0,69,0.00,,,0.00,WeatherTracker,2013-12-12 02:30:00,
2013-12-11 20:35:00,-2.5,-9.8,30.62,SW,234,0.0,3.0,70,0.00,,,0.00,WeatherTracker,2013-12-12 02:35:00,
2013-12-11 20:40:00,-2.7,-10.0,30.62,West,266,1.0,5.0,70,0.00,,,0.00,WeatherTracker,2013-12-12 02:40:00,
2013-12-11 20:45:00,-2.8,-10.1,30.62,West,263,0.0,6.0,70,0.00,,,0.00,WeatherTracker,2013-12-12 02:45:00,
2013-12-11 20:55:00,-3.0,-10.0,30.62,SW,236,1.0,7.0,71,0.00,,,0.00,WeatherTracker,2013-12-12 02:55:00,
2013-12-11 21:00:00,-3.6,-10.6,30.62,West,260,0.0,7.0,71,0.00,,,0.00,WeatherTracker,2013-12-12 03:00:00,
2013-12-11 21:10:00,-3.7,-10.4,30.63,West,268,0.0,7.0,72,0.00,,,0.00,WeatherTracker,2013-12-12 03:10:00,
2013-12-11 21:15:00,-3.9,-10.6,30.63,NW,311,4.0,9.0,72,0.00,,,0.00,WeatherTracker,2013-12-12 03:15:00,
2013-12-11 21:25:00,-3.9,-10.1,30.64,West,272,3.0,10.0,74,0.00,,,0.00,WeatherTracker,2013-12-12 03:25:00,
2013-12-11 21:30:00,-3.8,-10.0,30.63,WNW,290,3.0,8.0,74,0.00,,,0.00,WeatherTracker,2013-12-12 03:30:00,
2013-12-11 21:35:00,-3.7,-9.9,30.63,West,266,4.0,9.0,74,0.00,,,0.00,WeatherTracker,2013-12-12 03:35:00,
2013-12-11 21:45:00,-3.7,-9.9,30.62,SW,236,7.0,13.0,74,0.00,,,0.00,WeatherTracker,2013-12-12 03:45:00,
2013-12-11 21:50:00,-3.6,-9.8,30.62,West,259,4.0,13.0,74,0.00,,,0.00,WeatherTracker,2013-12-12 03:50:00,
2013-12-11 21:55:00,-3.6,-9.8,30.62,WNW,284,6.0,9.0,74,0.00,,,0.00,WeatherTracker,2013-12-12 03:55:00,
2013-12-11 22:00:00,-3.6,-9.8,30.62,WNW,292,2.0,9.0,74,0.00,,,0.00,WeatherTracker,2013-12-12 04:00:00,
2013-12-11 22:10:00,-3.5,-9.4,30.62,WSW,248,2.0,10.0,75,0.00,,,0.00,WeatherTracker,2013-12-12 04:10:00,
2013-12-11 22:20:00,-3.6,-9.5,30.62,WNW,294,2.0,9.0,75,0.00,,,0.00,WeatherTracker,2013-12-12 04:20:00,
2013-12-11 22:25:00,-3.5,-9.4,30.62,WNW,300,0.0,9.0,75,0.00,,,0.00,WeatherTracker,2013-12-12 04:25:00,
2013-12-11 22:30:00,-3.4,-9.3,30.62,WSW,244,0.0,5.0,75,0.00,,,0.00,WeatherTracker,2013-12-12 04:30:00,
2013-12-11 22:35:00,-3.2,-9.1,30.62,West,269,2.0,5.0,75,0.00,,,0.00,WeatherTracker,2013-12-12 04:35:00,
2013-12-11 22:40:00,-2.5,-8.4,30.62,SW,236,3.0,5.0,75,0.00,,,0.00,WeatherTracker,2013-12-12 04:40:00,
2013-12-11 22:45:00,-2.6,-8.5,30.62,West,280,2.0,8.0,75,0.00,,,0.00,WeatherTracker,2013-12-12 04:45:00,
2013-12-11 22:50:00,-2.6,-8.5,30.62,WSW,243,3.0,8.0,75,0.00,,,0.00,WeatherTracker,2013-12-12 04:50:00,
2013-12-11 22:55:00,-2.7,-8.6,30.62,WSW,247,0.0,6.0,75,0.00,,,0.00,WeatherTracker,2013-12-12 04:55:00,
2013-12-11 23:00:00,-2.7,-8.6,30.62,SSW,212,0.0,5.0,75,0.00,,,0.00,WeatherTracker,2013-12-12 05:00:00,
2013-12-11 23:05:00,-2.8,-8.7,30.61,WSW,244,0.0,5.0,75,0.00,,,0.00,WeatherTracker,2013-12-12 05:05:00,
2013-12-11 23:10:00,-2.9,-8.8,30.61,WSW,244,0.0,5.0,75,0.00,,,0.00,WeatherTracker,2013-12-12 05:10:00,
2013-12-11 23:15:00,-2.9,-8.8,30.61,SW,222,0.0,9.0,75,0.00,,,0.00,WeatherTracker,2013-12-12 05:15:00,
2013-12-11 23:20:00,-2.9,-8.6,30.61,SW,230,2.0,9.0,76,0.00,,,0.00,WeatherTracker,2013-12-12 05:20:00,
2013-12-11 23:25:00,-2.9,-8.6,30.61,SW,235,0.0,5.0,76,0.00,,,0.00,WeatherTracker,2013-12-12 05:25:00,
2013-12-11 23:30:00,-2.9,-8.6,30.60,SSW,213,0.0,5.0,76,0.00,,,0.00,WeatherTracker,2013-12-12 05:30:00,
2013-12-11 23:35:00,-2.9,-8.6,30.61,SW,230,0.0,3.0,76,0.00,,,0.00,WeatherTracker,2013-12-12 05:35:00,
2013-12-11 23:40:00,-3.0,-8.6,30.60,West,265,1.0,6.0,76,0.00,,,0.00,WeatherTracker,2013-12-12 05:40:00,
2013-12-11 23:45:00,-3.0,-8.6,30.61,West,273,3.0,6.0,76,0.00,,,0.00,WeatherTracker,2013-12-12 05:45:00,
2013-12-11 23:50:00,-3.0,-8.6,30.61,South,184,0.0,6.0,76,0.00,,,0.00,WeatherTracker,2013-12-12 05:50:00,